Sherborn, Massachusetts
Current Conditions -  °F | °C
As of 4:53 AM on Saturday 22 Nov 2014 (Local Time) from KOWD Reporting Station
Clear Clear  
Wind Chill: 15°   Ceiling: Unl
Heat Index: 21°   Visibility: 10mi
Dew Point: 11°   Wind: 5mph
Humidity: 65%   Direction: 240°WSW
Pressure: 30.43"   Gusts: NA
Location:  42.24°N, 71.37°W
Report Text: KOWD 220953Z AUTO 24004KT 10SM CLR M06/M12 A3043 RMK AO2 SLP304 T10611117
Loading
Personal Weather Stations






























Interactive Weather Map New forecast layout! Learn more

10-Day Weather Forecast

Advertisements
Track Severe Weather on mobile